METAR Data
IDs: Format: Raw Decoded Include TAF

Data at: 0133 UTC 29 Nov 2020

METAR for:KFFL (Fairfield Muni, IA, US)
Text:KFFL 290115Z AUTO 21008KT 10SM CLR 08/01 A3005 RMK A01
Temperature: 8.0°C ( 46°F)
Dewpoint: 1.0°C ( 34°F) [RH = 61%]
Pressure (altimeter):30.05 inches Hg (1017.7 mb)
Winds:from the SSW (210 degrees) at 9 MPH (8 knots; 4.1 m/s)
Visibility:10 or more sm (16+ km)
Ceiling:at least 12,000 feet AGL
Clouds:sky clear below 12,000 feet AGL
QC Flag:automated observation with no human augmentation